This is the latest recevied weather packets stored in our database for station/object HB9FVK-10. If no packets are shown the sender has not sent any weather packets the latest 10 day(s).
| Time | Temp. | Humidity | Pressure | Rain* | Wind** | Luminosity | Snow |
|---|---|---|---|---|---|---|---|
| 1777662686 | 17.22° C | 49% | 1027.3 hPa | - | - | - | - |
| 1777662065 | 17.78° C | 48% | 1027.3 hPa | - | - | - | - |
| 1777660862 | 18.89° C | 44% | 1027.1 hPa | - | - | - | - |
| 1777659660 | 21.11° C | 39% | 1026.9 hPa | - | - | - | - |
| 1777657856 | 22.22° C | 32% | 1027 hPa | - | - | - | - |
| 1777655451 | 22.78° C | 31% | 1026.7 hPa | - | - | - | - |
| 1777651844 | 22.78° C | 30% | 1027 hPa | - | - | - | - |
| 1777649440 | 22.78° C | 32% | 1027.3 hPa | - | - | - | - |
| 1777648859 | 22.22° C | 31% | 1027.3 hPa | - | - | - | - |
| 1777644051 | 21.67° C | 33% | 1027.8 hPa | - | - | - | - |
| 1777639822 | 20.56° C | 39% | 1028.5 hPa | - | - | - | - |
| 1777639220 | 21.11° C | 39% | 1028.5 hPa | - | - | - | - |
| 1777635073 | 19.44° C | 37% | 1029.1 hPa | - | - | - | - |
| 1777633269 | 18.33° C | 36% | 1029.3 hPa | - | - | - | - |
| 1777632669 | 17.78° C | 37% | 1029.5 hPa | - | - | - | - |
| 1777632087 | 17.22° C | 36% | 1029.6 hPa | - | - | - | - |
| 1777621847 | 11.67° C | 41% | 1030.1 hPa | - | - | - | - |
| 1777620044 | 10.56° C | 44% | 1030.2 hPa | - | - | - | - |
| 1777619442 | 10.56° C | 45% | 1030.2 hPa | - | - | - | - |
| 1777618841 | 10.56° C | 46% | 1030.1 hPa | - | - | - | - |
| 1777612830 | 5.56° C | 64% | 1029.8 hPa | - | - | - | - |
| 1777608622 | 3.33° C | 69% | 1029.1 hPa | - | - | - | - |
| 1777607419 | 3.89° C | 69% | 1029 hPa | - | - | - | - |
| 1777602069 | 4.44° C | 64% | 1029 hPa | - | - | - | - |
| 1777591869 | 10° C | 35% | 1028.6 hPa | - | - | - | - |
* Rain since midnight (hover to see other rain measurements)
** Current wind speed in m/s (hover to see current wind gust speed)